sensor_id;sensor_type;location;lat;lon;timestamp;P1;durP1;ratioP1;P2;durP2;ratioP2
52708;SDS011;38606;52.986;6.980;2023-06-10T00:01:51;10.32;;;5.20;;
52708;SDS011;38606;52.986;6.980;2023-06-10T00:04:20;9.20;;;4.40;;
52708;SDS011;38606;52.986;6.980;2023-06-10T00:06:46;8.30;;;4.40;;
52708;SDS011;38606;52.986;6.980;2023-06-10T00:09:14;8.63;;;4.00;;
52708;SDS011;38606;52.986;6.980;2023-06-10T00:11:41;8.60;;;4.63;;
52708;SDS011;38606;52.986;6.980;2023-06-10T00:14:07;6.93;;;4.03;;
52708;SDS011;38606;52.986;6.980;2023-06-10T00:16:33;10.27;;;4.30;;
52708;SDS011;38606;52.986;6.980;2023-06-10T00:18:59;10.90;;;4.45;;
52708;SDS011;38606;52.986;6.980;2023-06-10T00:21:26;10.63;;;4.43;;
52708;SDS011;38606;52.986;6.980;2023-06-10T00:23:53;7.22;;;4.22;;
52708;SDS011;38606;52.986;6.980;2023-06-10T00:26:20;8.98;;;4.13;;
52708;SDS011;38606;52.986;6.980;2023-06-10T00:28:49;10.30;;;4.70;;
52708;SDS011;38606;52.986;6.980;2023-06-10T00:31:15;10.77;;;5.13;;
52708;SDS011;38606;52.986;6.980;2023-06-10T00:33:42;7.10;;;4.60;;
52708;SDS011;38606;52.986;6.980;2023-06-10T00:36:08;8.63;;;4.80;;
52708;SDS011;38606;52.986;6.980;2023-06-10T00:38:34;8.95;;;4.40;;
52708;SDS011;38606;52.986;6.980;2023-06-10T00:41:00;9.48;;;4.78;;
52708;SDS011;38606;52.986;6.980;2023-06-10T00:43:26;7.93;;;4.13;;
52708;SDS011;38606;52.986;6.980;2023-06-10T00:45:51;8.90;;;4.15;;
52708;SDS011;38606;52.986;6.980;2023-06-10T00:48:18;8.23;;;4.25;;
52708;SDS011;38606;52.986;6.980;2023-06-10T00:50:45;9.75;;;4.93;;
52708;SDS011;38606;52.986;6.980;2023-06-10T00:53:12;9.88;;;5.30;;
52708;SDS011;38606;52.986;6.980;2023-06-10T00:55:38;6.05;;;4.53;;
52708;SDS011;38606;52.986;6.980;2023-06-10T00:58:05;10.00;;;4.70;;
52708;SDS011;38606;52.986;6.980;2023-06-10T01:00:31;7.53;;;4.30;;
52708;SDS011;38606;52.986;6.980;2023-06-10T01:02:56;9.65;;;4.80;;
52708;SDS011;38606;52.986;6.980;2023-06-10T01:05:23;8.35;;;4.55;;
52708;SDS011;38606;52.986;6.980;2023-06-10T01:11:05;7.90;;;4.60;;
52708;SDS011;38606;52.986;6.980;2023-06-10T01:13:25;8.73;;;4.30;;
52708;SDS011;38606;52.986;6.980;2023-06-10T01:15:54;8.55;;;4.35;;
52708;SDS011;38606;52.986;6.980;2023-06-10T01:18:21;11.00;;;4.57;;
52708;SDS011;38606;52.986;6.980;2023-06-10T01:20:47;10.45;;;4.38;;
52708;SDS011;38606;52.986;6.980;2023-06-10T01:23:14;10.10;;;4.47;;
52708;SDS011;38606;52.986;6.980;2023-06-10T01:25:52;9.45;;;4.30;;
52708;SDS011;38606;52.986;6.980;2023-06-10T01:33:38;9.68;;;4.35;;
52708;SDS011;38606;52.986;6.980;2023-06-10T01:36:07;8.35;;;4.45;;
52708;SDS011;38606;52.986;6.980;2023-06-10T01:38:36;10.88;;;4.85;;
52708;SDS011;38606;52.986;6.980;2023-06-10T01:41:07;9.18;;;4.78;;
52708;SDS011;38606;52.986;6.980;2023-06-10T01:43:35;13.20;;;4.82;;
52708;SDS011;38606;52.986;6.980;2023-06-10T01:46:03;5.88;;;4.43;;
52708;SDS011;38606;52.986;6.980;2023-06-10T01:48:29;11.15;;;4.80;;
52708;SDS011;38606;52.986;6.980;2023-06-10T01:50:55;8.00;;;4.90;;
52708;SDS011;38606;52.986;6.980;2023-06-10T01:53:21;9.15;;;4.55;;
52708;SDS011;38606;52.986;6.980;2023-06-10T01:55:48;8.00;;;4.95;;
52708;SDS011;38606;52.986;6.980;2023-06-10T01:58:13;9.18;;;4.10;;
52708;SDS011;38606;52.986;6.980;2023-06-10T02:00:39;9.02;;;4.35;;
52708;SDS011;38606;52.986;6.980;2023-06-10T02:03:05;13.23;;;4.90;;
52708;SDS011;38606;52.986;6.980;2023-06-10T02:05:31;10.43;;;4.80;;
52708;SDS011;38606;52.986;6.980;2023-06-10T02:07:57;8.15;;;4.40;;
52708;SDS011;38606;52.986;6.980;2023-06-10T02:10:23;8.85;;;4.50;;
52708;SDS011;38606;52.986;6.980;2023-06-10T02:12:49;8.05;;;4.25;;
52708;SDS011;38606;52.986;6.980;2023-06-10T02:15:15;9.93;;;4.55;;
52708;SDS011;38606;52.986;6.980;2023-06-10T02:17:40;9.10;;;4.55;;
52708;SDS011;38606;52.986;6.980;2023-06-10T02:20:06;7.90;;;4.68;;
52708;SDS011;38606;52.986;6.980;2023-06-10T02:22:36;9.70;;;5.00;;
52708;SDS011;38606;52.986;6.980;2023-06-10T02:25:02;10.57;;;4.75;;
52708;SDS011;38606;52.986;6.980;2023-06-10T02:27:29;6.35;;;4.22;;
52708;SDS011;38606;52.986;6.980;2023-06-10T02:29:55;10.95;;;4.90;;
52708;SDS011;38606;52.986;6.980;2023-06-10T02:32:22;10.90;;;5.20;;
52708;SDS011;38606;52.986;6.980;2023-06-10T02:34:48;14.10;;;5.22;;
52708;SDS011;38606;52.986;6.980;2023-06-10T02:37:16;11.63;;;5.35;;
52708;SDS011;38606;52.986;6.980;2023-06-10T02:39:42;10.85;;;5.20;;
52708;SDS011;38606;52.986;6.980;2023-06-10T02:42:08;11.57;;;5.13;;
52708;SDS011;38606;52.986;6.980;2023-06-10T02:44:34;8.10;;;4.38;;
52708;SDS011;38606;52.986;6.980;2023-06-10T02:46:59;13.57;;;5.28;;
52708;SDS011;38606;52.986;6.980;2023-06-10T02:49:25;11.82;;;5.20;;
52708;SDS011;38606;52.986;6.980;2023-06-10T02:51:54;13.65;;;5.30;;
52708;SDS011;38606;52.986;6.980;2023-06-10T02:54:22;8.15;;;4.65;;
52708;SDS011;38606;52.986;6.980;2023-06-10T02:56:48;10.50;;;4.82;;
52708;SDS011;38606;52.986;6.980;2023-06-10T02:59:14;8.20;;;5.10;;
52708;SDS011;38606;52.986;6.980;2023-06-10T03:01:40;9.30;;;4.78;;
52708;SDS011;38606;52.986;6.980;2023-06-10T03:04:06;8.10;;;5.03;;
52708;SDS011;38606;52.986;6.980;2023-06-10T03:06:32;7.20;;;5.05;;
52708;SDS011;38606;52.986;6.980;2023-06-10T03:09:02;9.90;;;4.57;;
52708;SDS011;38606;52.986;6.980;2023-06-10T03:11:30;11.00;;;5.15;;
52708;SDS011;38606;52.986;6.980;2023-06-10T03:13:56;10.32;;;5.25;;
52708;SDS011;38606;52.986;6.980;2023-06-10T03:16:22;10.77;;;4.82;;
52708;SDS011;38606;52.986;6.980;2023-06-10T03:18:50;10.25;;;5.13;;
52708;SDS011;38606;52.986;6.980;2023-06-10T03:21:17;8.60;;;4.60;;
52708;SDS011;38606;52.986;6.980;2023-06-10T03:23:43;10.10;;;5.20;;
52708;SDS011;38606;52.986;6.980;2023-06-10T03:26:09;11.65;;;5.28;;
52708;SDS011;38606;52.986;6.980;2023-06-10T03:28:35;9.88;;;4.95;;
52708;SDS011;38606;52.986;6.980;2023-06-10T03:31:01;10.65;;;5.30;;
52708;SDS011;38606;52.986;6.980;2023-06-10T03:33:27;10.65;;;5.03;;
52708;SDS011;38606;52.986;6.980;2023-06-10T03:35:53;8.38;;;4.88;;
52708;SDS011;38606;52.986;6.980;2023-06-10T03:38:18;13.15;;;5.43;;
52708;SDS011;38606;52.986;6.980;2023-06-10T03:40:44;13.77;;;5.38;;
52708;SDS011;38606;52.986;6.980;2023-06-10T03:43:10;10.48;;;5.38;;
52708;SDS011;38606;52.986;6.980;2023-06-10T03:45:36;9.65;;;5.10;;
52708;SDS011;38606;52.986;6.980;2023-06-10T03:48:02;9.70;;;5.25;;
52708;SDS011;38606;52.986;6.980;2023-06-10T03:50:28;11.70;;;5.70;;
52708;SDS011;38606;52.986;6.980;2023-06-10T03:52:54;13.80;;;5.30;;
52708;SDS011;38606;52.986;6.980;2023-06-10T03:55:20;12.50;;;5.80;;
52708;SDS011;38606;52.986;6.980;2023-06-10T03:57:47;11.68;;;5.32;;
52708;SDS011;38606;52.986;6.980;2023-06-10T04:00:14;12.57;;;5.78;;
52708;SDS011;38606;52.986;6.980;2023-06-10T04:02:41;11.60;;;5.60;;
52708;SDS011;38606;52.986;6.980;2023-06-10T04:05:16;10.10;;;5.20;;
52708;SDS011;38606;52.986;6.980;2023-06-10T04:10:09;13.35;;;5.70;;
52708;SDS011;38606;52.986;6.980;2023-06-10T04:12:36;15.15;;;5.82;;
52708;SDS011;38606;52.986;6.980;2023-06-10T04:15:03;9.15;;;5.22;;
52708;SDS011;38606;52.986;6.980;2023-06-10T04:17:30;9.40;;;5.45;;
52708;SDS011;38606;52.986;6.980;2023-06-10T04:19:56;12.18;;;5.80;;
52708;SDS011;38606;52.986;6.980;2023-06-10T04:22:23;14.70;;;5.97;;
52708;SDS011;38606;52.986;6.980;2023-06-10T04:24:49;13.63;;;5.63;;
52708;SDS011;38606;52.986;6.980;2023-06-10T04:27:15;11.55;;;6.03;;
52708;SDS011;38606;52.986;6.980;2023-06-10T04:29:41;11.85;;;5.65;;
52708;SDS011;38606;52.986;6.980;2023-06-10T04:32:07;14.02;;;6.13;;
52708;SDS011;38606;52.986;6.980;2023-06-10T04:34:33;13.48;;;5.90;;
52708;SDS011;38606;52.986;6.980;2023-06-10T04:36:59;12.55;;;6.20;;
52708;SDS011;38606;52.986;6.980;2023-06-10T04:39:25;12.68;;;5.88;;
52708;SDS011;38606;52.986;6.980;2023-06-10T04:41:51;15.85;;;6.38;;
52708;SDS011;38606;52.986;6.980;2023-06-10T04:44:17;16.60;;;5.55;;
52708;SDS011;38606;52.986;6.980;2023-06-10T04:46:43;11.50;;;5.88;;
52708;SDS011;38606;52.986;6.980;2023-06-10T04:49:10;16.05;;;6.05;;
52708;SDS011;38606;52.986;6.980;2023-06-10T04:51:39;15.57;;;5.97;;
52708;SDS011;38606;52.986;6.980;2023-06-10T04:54:05;15.02;;;6.13;;
52708;SDS011;38606;52.986;6.980;2023-06-10T04:56:31;13.32;;;5.70;;
52708;SDS011;38606;52.986;6.980;2023-06-10T04:58:57;19.45;;;7.10;;
52708;SDS011;38606;52.986;6.980;2023-06-10T05:01:23;13.50;;;6.28;;
52708;SDS011;38606;52.986;6.980;2023-06-10T05:03:49;12.18;;;5.70;;
52708;SDS011;38606;52.986;6.980;2023-06-10T05:06:15;11.93;;;6.38;;
52708;SDS011;38606;52.986;6.980;2023-06-10T05:08:41;13.73;;;6.13;;
52708;SDS011;38606;52.986;6.980;2023-06-10T05:11:07;16.95;;;6.07;;
52708;SDS011;38606;52.986;6.980;2023-06-10T05:13:32;17.80;;;5.95;;
52708;SDS011;38606;52.986;6.980;2023-06-10T05:15:58;12.30;;;5.80;;
52708;SDS011;38606;52.986;6.980;2023-06-10T05:18:24;10.57;;;5.63;;
52708;SDS011;38606;52.986;6.980;2023-06-10T05:20:50;11.13;;;5.55;;
52708;SDS011;38606;52.986;6.980;2023-06-10T05:23:16;10.75;;;5.90;;
52708;SDS011;38606;52.986;6.980;2023-06-10T05:25:42;12.35;;;6.00;;
52708;SDS011;38606;52.986;6.980;2023-06-10T05:28:08;12.23;;;5.50;;
52708;SDS011;38606;52.986;6.980;2023-06-10T05:30:37;14.38;;;6.13;;
52708;SDS011;38606;52.986;6.980;2023-06-10T05:33:03;12.30;;;5.68;;
52708;SDS011;38606;52.986;6.980;2023-06-10T05:35:29;11.30;;;5.78;;
52708;SDS011;38606;52.986;6.980;2023-06-10T05:37:55;11.30;;;6.07;;
52708;SDS011;38606;52.986;6.980;2023-06-10T05:40:21;13.32;;;5.57;;
52708;SDS011;38606;52.986;6.980;2023-06-10T05:42:47;11.55;;;5.40;;
52708;SDS011;38606;52.986;6.980;2023-06-10T05:45:13;10.05;;;5.30;;
52708;SDS011;38606;52.986;6.980;2023-06-10T05:47:38;14.32;;;5.22;;
52708;SDS011;38606;52.986;6.980;2023-06-10T05:50:05;10.68;;;5.18;;
52708;SDS011;38606;52.986;6.980;2023-06-10T05:52:35;14.48;;;5.65;;
52708;SDS011;38606;52.986;6.980;2023-06-10T05:55:04;10.50;;;5.10;;
52708;SDS011;38606;52.986;6.980;2023-06-10T05:57:31;12.95;;;5.90;;
52708;SDS011;38606;52.986;6.980;2023-06-10T05:59:57;11.52;;;6.03;;
52708;SDS011;38606;52.986;6.980;2023-06-10T06:02:22;12.50;;;6.32;;
52708;SDS011;38606;52.986;6.980;2023-06-10T06:04:48;11.80;;;6.38;;
52708;SDS011;38606;52.986;6.980;2023-06-10T06:07:14;13.77;;;7.00;;
52708;SDS011;38606;52.986;6.980;2023-06-10T06:09:40;12.70;;;6.97;;
52708;SDS011;38606;52.986;6.980;2023-06-10T06:12:06;12.43;;;7.13;;
52708;SDS011;38606;52.986;6.980;2023-06-10T06:14:36;11.70;;;6.60;;
52708;SDS011;38606;52.986;6.980;2023-06-10T06:17:03;12.15;;;6.57;;
52708;SDS011;38606;52.986;6.980;2023-06-10T06:19:29;15.48;;;6.50;;
52708;SDS011;38606;52.986;6.980;2023-06-10T06:21:54;15.77;;;7.65;;
52708;SDS011;38606;52.986;6.980;2023-06-10T06:24:20;12.48;;;6.75;;
52708;SDS011;38606;52.986;6.980;2023-06-10T06:26:46;16.13;;;6.65;;
52708;SDS011;38606;52.986;6.980;2023-06-10T06:29:11;17.25;;;7.50;;
52708;SDS011;38606;52.986;6.980;2023-06-10T06:31:37;11.73;;;6.72;;
52708;SDS011;38606;52.986;6.980;2023-06-10T06:34:03;12.60;;;6.45;;
52708;SDS011;38606;52.986;6.980;2023-06-10T06:36:29;10.63;;;6.28;;
52708;SDS011;38606;52.986;6.980;2023-06-10T06:38:55;13.70;;;6.45;;
52708;SDS011;38606;52.986;6.980;2023-06-10T06:41:20;13.18;;;6.63;;
52708;SDS011;38606;52.986;6.980;2023-06-10T06:43:47;8.80;;;6.20;;
52708;SDS011;38606;52.986;6.980;2023-06-10T06:46:12;10.13;;;6.28;;
52708;SDS011;38606;52.986;6.980;2023-06-10T06:48:38;12.48;;;6.75;;
52708;SDS011;38606;52.986;6.980;2023-06-10T06:51:04;14.30;;;6.35;;
52708;SDS011;38606;52.986;6.980;2023-06-10T06:53:30;13.00;;;6.00;;
52708;SDS011;38606;52.986;6.980;2023-06-10T06:55:56;9.57;;;6.10;;
52708;SDS011;38606;52.986;6.980;2023-06-10T06:58:21;9.35;;;5.68;;
52708;SDS011;38606;52.986;6.980;2023-06-10T07:00:47;12.18;;;5.72;;
52708;SDS011;38606;52.986;6.980;2023-06-10T07:03:13;11.05;;;5.40;;
52708;SDS011;38606;52.986;6.980;2023-06-10T07:05:39;11.70;;;5.97;;
52708;SDS011;38606;52.986;6.980;2023-06-10T07:08:04;12.40;;;6.20;;
52708;SDS011;38606;52.986;6.980;2023-06-10T07:10:30;13.27;;;5.78;;
52708;SDS011;38606;52.986;6.980;2023-06-10T07:12:56;9.40;;;5.43;;
52708;SDS011;38606;52.986;6.980;2023-06-10T07:15:22;9.13;;;5.88;;
52708;SDS011;38606;52.986;6.980;2023-06-10T07:17:48;10.45;;;5.80;;
52708;SDS011;38606;52.986;6.980;2023-06-10T07:20:13;10.57;;;5.65;;
52708;SDS011;38606;52.986;6.980;2023-06-10T07:22:40;8.35;;;5.00;;
52708;SDS011;38606;52.986;6.980;2023-06-10T07:25:07;9.63;;;6.03;;
52708;SDS011;38606;52.986;6.980;2023-06-10T07:27:32;11.95;;;5.38;;
52708;SDS011;38606;52.986;6.980;2023-06-10T07:29:58;10.50;;;5.28;;
52708;SDS011;38606;52.986;6.980;2023-06-10T07:32:26;8.90;;;5.03;;
52708;SDS011;38606;52.986;6.980;2023-06-10T07:34:51;8.10;;;4.95;;
52708;SDS011;38606;52.986;6.980;2023-06-10T07:37:17;10.73;;;5.00;;
52708;SDS011;38606;52.986;6.980;2023-06-10T07:39:44;8.13;;;4.80;;
52708;SDS011;38606;52.986;6.980;2023-06-10T07:42:10;10.45;;;4.65;;
52708;SDS011;38606;52.986;6.980;2023-06-10T07:44:36;6.95;;;4.65;;
52708;SDS011;38606;52.986;6.980;2023-06-10T07:47:02;9.65;;;4.82;;
52708;SDS011;38606;52.986;6.980;2023-06-10T07:49:28;9.32;;;5.40;;
52708;SDS011;38606;52.986;6.980;2023-06-10T07:51:55;8.93;;;5.00;;
52708;SDS011;38606;52.986;6.980;2023-06-10T07:54:21;13.50;;;5.18;;
52708;SDS011;38606;52.986;6.980;2023-06-10T07:56:46;12.30;;;4.82;;
52708;SDS011;38606;52.986;6.980;2023-06-10T07:59:13;7.32;;;4.85;;
52708;SDS011;38606;52.986;6.980;2023-06-10T08:01:39;10.68;;;5.10;;
52708;SDS011;38606;52.986;6.980;2023-06-10T08:04:05;9.68;;;5.18;;
52708;SDS011;38606;52.986;6.980;2023-06-10T08:06:31;10.15;;;4.65;;
52708;SDS011;38606;52.986;6.980;2023-06-10T08:08:57;6.95;;;4.35;;
52708;SDS011;38606;52.986;6.980;2023-06-10T08:11:23;6.93;;;4.40;;
52708;SDS011;38606;52.986;6.980;2023-06-10T08:13:49;11.63;;;4.70;;
52708;SDS011;38606;52.986;6.980;2023-06-10T08:16:14;9.50;;;4.78;;
52708;SDS011;38606;52.986;6.980;2023-06-10T08:18:41;9.30;;;4.43;;
52708;SDS011;38606;52.986;6.980;2023-06-10T08:21:07;7.15;;;3.88;;
52708;SDS011;38606;52.986;6.980;2023-06-10T08:23:33;8.02;;;3.95;;
52708;SDS011;38606;52.986;6.980;2023-06-10T08:25:58;9.05;;;4.22;;
52708;SDS011;38606;52.986;6.980;2023-06-10T08:28:24;9.00;;;4.50;;
52708;SDS011;38606;52.986;6.980;2023-06-10T08:30:50;8.95;;;4.93;;
52708;SDS011;38606;52.986;6.980;2023-06-10T08:33:16;10.88;;;4.90;;
52708;SDS011;38606;52.986;6.980;2023-06-10T08:35:41;7.28;;;4.35;;
52708;SDS011;38606;52.986;6.980;2023-06-10T08:38:07;8.30;;;4.50;;
52708;SDS011;38606;52.986;6.980;2023-06-10T08:40:33;10.82;;;5.50;;
52708;SDS011;38606;52.986;6.980;2023-06-10T08:45:32;7.28;;;4.15;;
52708;SDS011;38606;52.986;6.980;2023-06-10T08:48:00;8.18;;;4.88;;
52708;SDS011;38606;52.986;6.980;2023-06-10T08:50:35;6.60;;;4.22;;
52708;SDS011;38606;52.986;6.980;2023-06-10T08:53:02;6.45;;;3.90;;
52708;SDS011;38606;52.986;6.980;2023-06-10T08:55:35;9.32;;;3.83;;
52708;SDS011;38606;52.986;6.980;2023-06-10T08:58:03;8.02;;;4.80;;
52708;SDS011;38606;52.986;6.980;2023-06-10T09:00:30;10.10;;;3.90;;
52708;SDS011;38606;52.986;6.980;2023-06-10T09:02:57;5.68;;;3.75;;
52708;SDS011;38606;52.986;6.980;2023-06-10T09:05:24;9.13;;;4.28;;
52708;SDS011;38606;52.986;6.980;2023-06-10T09:07:52;8.20;;;4.05;;
52708;SDS011;38606;52.986;6.980;2023-06-10T09:10:19;8.77;;;3.67;;
52708;SDS011;38606;52.986;6.980;2023-06-10T09:12:44;9.90;;;4.15;;
52708;SDS011;38606;52.986;6.980;2023-06-10T09:15:10;6.93;;;3.80;;
52708;SDS011;38606;52.986;6.980;2023-06-10T09:17:37;5.75;;;3.42;;
52708;SDS011;38606;52.986;6.980;2023-06-10T09:20:06;8.45;;;3.75;;
52708;SDS011;38606;52.986;6.980;2023-06-10T09:22:33;7.13;;;3.92;;
52708;SDS011;38606;52.986;6.980;2023-06-10T09:25:17;10.02;;;4.28;;
52708;SDS011;38606;52.986;6.980;2023-06-10T09:27:47;9.45;;;4.03;;
52708;SDS011;38606;52.986;6.980;2023-06-10T09:32:52;6.75;;;3.28;;
52708;SDS011;38606;52.986;6.980;2023-06-10T09:35:21;5.32;;;3.50;;
52708;SDS011;38606;52.986;6.980;2023-06-10T09:37:51;6.97;;;3.50;;
52708;SDS011;38606;52.986;6.980;2023-06-10T09:40:20;5.18;;;2.83;;
52708;SDS011;38606;52.986;6.980;2023-06-10T09:42:46;9.18;;;3.30;;
52708;SDS011;38606;52.986;6.980;2023-06-10T09:45:20;6.97;;;3.35;;
52708;SDS011;38606;52.986;6.980;2023-06-10T09:47:46;6.70;;;3.50;;
52708;SDS011;38606;52.986;6.980;2023-06-10T09:50:13;12.00;;;3.67;;
52708;SDS011;38606;52.986;6.980;2023-06-10T09:52:39;7.32;;;3.35;;
52708;SDS011;38606;52.986;6.980;2023-06-10T09:55:07;8.20;;;3.53;;
52708;SDS011;38606;52.986;6.980;2023-06-10T09:57:34;5.35;;;3.30;;
52708;SDS011;38606;52.986;6.980;2023-06-10T10:00:04;5.97;;;3.40;;
52708;SDS011;38606;52.986;6.980;2023-06-10T10:02:31;7.88;;;3.15;;
52708;SDS011;38606;52.986;6.980;2023-06-10T10:05:03;4.70;;;2.53;;
52708;SDS011;38606;52.986;6.980;2023-06-10T10:07:29;6.97;;;3.20;;
52708;SDS011;38606;52.986;6.980;2023-06-10T10:09:56;8.80;;;3.20;;
52708;SDS011;38606;52.986;6.980;2023-06-10T10:12:21;7.35;;;3.17;;
52708;SDS011;38606;52.986;6.980;2023-06-10T10:14:48;6.07;;;3.25;;
52708;SDS011;38606;52.986;6.980;2023-06-10T10:17:15;6.43;;;3.05;;
52708;SDS011;38606;52.986;6.980;2023-06-10T10:20:04;7.15;;;3.13;;
52708;SDS011;38606;52.986;6.980;2023-06-10T10:22:31;6.68;;;3.85;;
52708;SDS011;38606;52.986;6.980;2023-06-10T10:25:02;12.03;;;3.40;;
52708;SDS011;38606;52.986;6.980;2023-06-10T10:27:48;6.90;;;3.40;;
52708;SDS011;38606;52.986;6.980;2023-06-10T10:30:20;8.18;;;3.53;;
52708;SDS011;38606;52.986;6.980;2023-06-10T10:35:24;5.55;;;2.70;;
52708;SDS011;38606;52.986;6.980;2023-06-10T10:37:52;8.38;;;3.70;;
52708;SDS011;38606;52.986;6.980;2023-06-10T10:40:19;5.13;;;3.15;;
52708;SDS011;38606;52.986;6.980;2023-06-10T10:42:49;5.07;;;2.72;;
52708;SDS011;38606;52.986;6.980;2023-06-10T10:45:15;5.18;;;2.83;;
52708;SDS011;38606;52.986;6.980;2023-06-10T10:47:43;6.55;;;3.40;;
52708;SDS011;38606;52.986;6.980;2023-06-10T10:50:17;5.82;;;2.95;;
52708;SDS011;38606;52.986;6.980;2023-06-10T10:52:51;7.50;;;2.80;;
52708;SDS011;38606;52.986;6.980;2023-06-10T10:55:25;6.38;;;2.95;;
52708;SDS011;38606;52.986;6.980;2023-06-10T10:58:04;7.68;;;2.72;;
52708;SDS011;38606;52.986;6.980;2023-06-10T11:00:36;5.20;;;2.90;;
52708;SDS011;38606;52.986;6.980;2023-06-10T11:03:14;4.45;;;3.00;;
52708;SDS011;38606;52.986;6.980;2023-06-10T11:05:46;6.03;;;2.67;;
52708;SDS011;38606;52.986;6.980;2023-06-10T11:10:58;6.57;;;2.85;;
52708;SDS011;38606;52.986;6.980;2023-06-10T11:13:25;4.47;;;2.70;;
52708;SDS011;38606;52.986;6.980;2023-06-10T11:15:52;7.55;;;2.75;;
52708;SDS011;38606;52.986;6.980;2023-06-10T11:18:23;5.15;;;2.85;;
52708;SDS011;38606;52.986;6.980;2023-06-10T11:31:27;6.15;;;2.70;;
52708;SDS011;38606;52.986;6.980;2023-06-10T11:33:58;5.22;;;2.78;;
52708;SDS011;38606;52.986;6.980;2023-06-10T11:36:25;5.15;;;2.50;;
52708;SDS011;38606;52.986;6.980;2023-06-10T11:38:56;7.28;;;2.47;;
52708;SDS011;38606;52.986;6.980;2023-06-10T11:41:26;4.57;;;2.72;;
52708;SDS011;38606;52.986;6.980;2023-06-10T11:43:53;5.78;;;2.50;;
52708;SDS011;38606;52.986;6.980;2023-06-10T11:46:21;5.80;;;2.40;;
52708;SDS011;38606;52.986;6.980;2023-06-10T11:48:51;5.68;;;3.28;;
52708;SDS011;38606;52.986;6.980;2023-06-10T11:51:18;5.90;;;2.40;;
52708;SDS011;38606;52.986;6.980;2023-06-10T11:53:48;4.53;;;2.50;;
52708;SDS011;38606;52.986;6.980;2023-06-10T11:56:24;4.65;;;2.20;;
52708;SDS011;38606;52.986;6.980;2023-06-10T11:58:58;5.53;;;2.67;;
52708;SDS011;38606;52.986;6.980;2023-06-10T12:01:42;6.25;;;2.65;;
52708;SDS011;38606;52.986;6.980;2023-06-10T12:04:10;3.83;;;2.47;;
52708;SDS011;38606;52.986;6.980;2023-06-10T12:06:44;4.38;;;2.25;;
52708;SDS011;38606;52.986;6.980;2023-06-10T12:09:24;4.28;;;2.55;;
52708;SDS011;38606;52.986;6.980;2023-06-10T12:11:52;4.53;;;2.38;;
52708;SDS011;38606;52.986;6.980;2023-06-10T12:17:20;7.50;;;2.50;;
52708;SDS011;38606;52.986;6.980;2023-06-10T12:19:48;6.90;;;2.90;;
52708;SDS011;38606;52.986;6.980;2023-06-10T12:22:14;5.95;;;2.83;;
52708;SDS011;38606;52.986;6.980;2023-06-10T12:24:44;4.47;;;2.60;;
52708;SDS011;38606;52.986;6.980;2023-06-10T12:27:24;4.45;;;2.50;;
52708;SDS011;38606;52.986;6.980;2023-06-10T12:29:53;4.65;;;2.92;;
52708;SDS011;38606;52.986;6.980;2023-06-10T12:32:18;5.43;;;2.50;;
52708;SDS011;38606;52.986;6.980;2023-06-10T12:34:47;6.15;;;2.85;;
52708;SDS011;38606;52.986;6.980;2023-06-10T12:37:13;5.88;;;2.67;;
52708;SDS011;38606;52.986;6.980;2023-06-10T12:39:39;4.60;;;2.53;;
52708;SDS011;38606;52.986;6.980;2023-06-10T12:42:06;3.50;;;2.20;;
52708;SDS011;38606;52.986;6.980;2023-06-10T12:44:35;4.10;;;2.17;;
52708;SDS011;38606;52.986;6.980;2023-06-10T12:47:08;3.40;;;2.40;;
52708;SDS011;38606;52.986;6.980;2023-06-10T12:49:35;3.58;;;2.45;;
52708;SDS011;38606;52.986;6.980;2023-06-10T12:52:02;5.03;;;2.83;;
52708;SDS011;38606;52.986;6.980;2023-06-10T12:54:28;4.35;;;2.30;;
52708;SDS011;38606;52.986;6.980;2023-06-10T12:56:54;3.15;;;2.45;;
52708;SDS011;38606;52.986;6.980;2023-06-10T12:59:20;5.32;;;2.58;;
52708;SDS011;38606;52.986;6.980;2023-06-10T13:01:51;3.67;;;2.22;;
52708;SDS011;38606;52.986;6.980;2023-06-10T13:04:18;2.67;;;2.10;;
52708;SDS011;38606;52.986;6.980;2023-06-10T13:06:44;7.85;;;2.50;;
52708;SDS011;38606;52.986;6.980;2023-06-10T13:09:12;3.83;;;2.28;;
52708;SDS011;38606;52.986;6.980;2023-06-10T13:11:41;4.75;;;2.30;;
52708;SDS011;38606;52.986;6.980;2023-06-10T13:14:07;7.40;;;2.20;;
52708;SDS011;38606;52.986;6.980;2023-06-10T13:16:35;6.53;;;2.60;;
52708;SDS011;38606;52.986;6.980;2023-06-10T13:19:03;4.35;;;2.38;;
52708;SDS011;38606;52.986;6.980;2023-06-10T13:21:30;6.57;;;2.40;;
52708;SDS011;38606;52.986;6.980;2023-06-10T13:23:57;4.10;;;2.30;;
52708;SDS011;38606;52.986;6.980;2023-06-10T13:26:23;12.40;;;2.40;;
52708;SDS011;38606;52.986;6.980;2023-06-10T13:28:48;5.15;;;2.53;;
52708;SDS011;38606;52.986;6.980;2023-06-10T13:31:14;4.55;;;2.10;;
52708;SDS011;38606;52.986;6.980;2023-06-10T13:33:40;5.15;;;2.35;;
52708;SDS011;38606;52.986;6.980;2023-06-10T13:36:08;2.47;;;2.20;;
52708;SDS011;38606;52.986;6.980;2023-06-10T13:38:34;3.53;;;2.15;;
52708;SDS011;38606;52.986;6.980;2023-06-10T13:41:00;2.88;;;2.30;;
52708;SDS011;38606;52.986;6.980;2023-06-10T13:43:26;4.35;;;2.28;;
52708;SDS011;38606;52.986;6.980;2023-06-10T13:45:51;8.13;;;2.45;;
52708;SDS011;38606;52.986;6.980;2023-06-10T13:48:17;4.93;;;2.40;;
52708;SDS011;38606;52.986;6.980;2023-06-10T13:50:43;5.80;;;2.40;;
52708;SDS011;38606;52.986;6.980;2023-06-10T13:53:11;4.18;;;2.53;;
52708;SDS011;38606;52.986;6.980;2023-06-10T13:55:37;7.53;;;2.50;;
52708;SDS011;38606;52.986;6.980;2023-06-10T13:58:02;4.13;;;2.10;;
52708;SDS011;38606;52.986;6.980;2023-06-10T14:00:28;4.53;;;2.40;;
52708;SDS011;38606;52.986;6.980;2023-06-10T14:02:54;9.43;;;2.83;;
52708;SDS011;38606;52.986;6.980;2023-06-10T14:05:20;4.82;;;2.15;;
52708;SDS011;38606;52.986;6.980;2023-06-10T14:07:46;5.75;;;2.20;;
52708;SDS011;38606;52.986;6.980;2023-06-10T14:10:12;5.32;;;2.28;;
52708;SDS011;38606;52.986;6.980;2023-06-10T14:12:37;5.78;;;2.15;;
52708;SDS011;38606;52.986;6.980;2023-06-10T14:15:04;7.10;;;2.47;;
52708;SDS011;38606;52.986;6.980;2023-06-10T14:17:30;7.20;;;2.30;;
52708;SDS011;38606;52.986;6.980;2023-06-10T14:19:56;3.60;;;2.05;;
52708;SDS011;38606;52.986;6.980;2023-06-10T14:22:21;6.50;;;2.17;;
52708;SDS011;38606;52.986;6.980;2023-06-10T14:24:47;5.25;;;2.00;;
52708;SDS011;38606;52.986;6.980;2023-06-10T14:27:13;6.32;;;2.30;;
52708;SDS011;38606;52.986;6.980;2023-06-10T14:29:38;4.07;;;2.03;;
52708;SDS011;38606;52.986;6.980;2023-06-10T14:32:05;3.65;;;1.80;;
52708;SDS011;38606;52.986;6.980;2023-06-10T14:34:32;4.80;;;2.35;;
52708;SDS011;38606;52.986;6.980;2023-06-10T14:36:59;3.97;;;2.03;;
52708;SDS011;38606;52.986;6.980;2023-06-10T14:39:25;4.03;;;1.90;;
52708;SDS011;38606;52.986;6.980;2023-06-10T14:41:51;3.45;;;2.00;;
52708;SDS011;38606;52.986;6.980;2023-06-10T14:44:20;3.75;;;1.98;;
52708;SDS011;38606;52.986;6.980;2023-06-10T14:46:45;3.60;;;2.35;;
52708;SDS011;38606;52.986;6.980;2023-06-10T14:49:11;4.07;;;2.08;;
52708;SDS011;38606;52.986;6.980;2023-06-10T14:51:37;3.35;;;2.10;;
52708;SDS011;38606;52.986;6.980;2023-06-10T14:54:03;3.45;;;2.20;;
52708;SDS011;38606;52.986;6.980;2023-06-10T14:56:29;2.97;;;1.70;;
52708;SDS011;38606;52.986;6.980;2023-06-10T14:58:55;3.90;;;1.80;;
52708;SDS011;38606;52.986;6.980;2023-06-10T15:01:20;4.47;;;2.05;;
52708;SDS011;38606;52.986;6.980;2023-06-10T15:03:46;3.30;;;2.15;;
52708;SDS011;38606;52.986;6.980;2023-06-10T15:06:12;3.85;;;2.30;;
52708;SDS011;38606;52.986;6.980;2023-06-10T15:08:38;3.60;;;1.83;;
52708;SDS011;38606;52.986;6.980;2023-06-10T15:11:04;4.25;;;2.20;;
52708;SDS011;38606;52.986;6.980;2023-06-10T15:13:29;3.28;;;2.45;;
52708;SDS011;38606;52.986;6.980;2023-06-10T15:15:55;6.78;;;2.20;;
52708;SDS011;38606;52.986;6.980;2023-06-10T15:18:21;5.68;;;2.22;;